sensor_id;sensor_type;location;lat;lon;timestamp;pressure;altitude;pressure_sealevel;temperature;humidity
56600;BME280;51832;48.152;11.530;2023-02-19T00:00:18;95928.75;;;13.54;57.55
56600;BME280;51832;48.152;11.530;2023-02-19T00:05:19;95920.50;;;13.39;58.17
56600;BME280;51832;48.152;11.530;2023-02-19T00:10:19;95922.34;;;13.50;57.73
56600;BME280;51832;48.152;11.530;2023-02-19T00:15:20;95928.88;;;13.47;57.77
56600;BME280;51832;48.152;11.530;2023-02-19T00:20:20;95912.75;;;13.26;58.73
56600;BME280;51832;48.152;11.530;2023-02-19T00:25:21;95904.97;;;13.42;58.25
56600;BME280;51832;48.152;11.530;2023-02-19T00:30:21;95912.00;;;13.72;57.18
56600;BME280;51832;48.152;11.530;2023-02-19T00:35:22;95915.00;;;13.64;57.48
56600;BME280;51832;48.152;11.530;2023-02-19T00:40:22;95914.06;;;13.05;59.34
56600;BME280;51832;48.152;11.530;2023-02-19T00:45:25;95921.47;;;13.26;58.60
56600;BME280;51832;48.152;11.530;2023-02-19T00:50:25;95912.56;;;13.39;58.44
56600;BME280;51832;48.152;11.530;2023-02-19T00:55:26;95879.22;;;13.38;58.72
56600;BME280;51832;48.152;11.530;2023-02-19T01:00:26;95884.75;;;13.36;58.71
56600;BME280;51832;48.152;11.530;2023-02-19T01:05:27;95881.88;;;13.49;58.31
56600;BME280;51832;48.152;11.530;2023-02-19T01:10:27;95892.81;;;13.65;57.59
56600;BME280;51832;48.152;11.530;2023-02-19T01:15:28;95876.94;;;13.65;57.67
56600;BME280;51832;48.152;11.530;2023-02-19T01:20:28;95872.78;;;13.45;58.44
56600;BME280;51832;48.152;11.530;2023-02-19T01:25:29;95863.72;;;13.65;57.82
56600;BME280;51832;48.152;11.530;2023-02-19T01:30:29;95860.03;;;13.31;58.99
56600;BME280;51832;48.152;11.530;2023-02-19T01:35:32;95867.84;;;13.72;57.66
56600;BME280;51832;48.152;11.530;2023-02-19T01:40:32;95867.84;;;13.37;59.24
56600;BME280;51832;48.152;11.530;2023-02-19T01:45:34;95852.44;;;13.23;58.95
56600;BME280;51832;48.152;11.530;2023-02-19T01:50:48;95856.22;;;13.27;59.55
56600;BME280;51832;48.152;11.530;2023-02-19T01:55:52;95836.69;;;13.39;59.00
56600;BME280;51832;48.152;11.530;2023-02-19T02:00:54;95833.91;;;13.11;60.03
56600;BME280;51832;48.152;11.530;2023-02-19T02:06:06;95846.69;;;13.26;60.16
56600;BME280;51832;48.152;11.530;2023-02-19T02:11:08;95846.03;;;12.59;63.87
56600;BME280;51832;48.152;11.530;2023-02-19T02:27:08;95841.56;;;12.59;68.62
56600;BME280;51832;48.152;11.530;2023-02-19T02:32:16;95847.78;;;12.17;70.04
56600;BME280;51832;48.152;11.530;2023-02-19T02:37:20;95817.25;;;12.09;70.30
56600;BME280;51832;48.152;11.530;2023-02-19T02:42:21;95828.41;;;12.11;70.85
56600;BME280;51832;48.152;11.530;2023-02-19T02:47:30;95807.69;;;11.78;72.95
56600;BME280;51832;48.152;11.530;2023-02-19T02:52:43;95817.66;;;11.51;74.87
56600;BME280;51832;48.152;11.530;2023-02-19T02:58:04;95805.31;;;11.70;75.39
56600;BME280;51832;48.152;11.530;2023-02-19T03:03:05;95803.63;;;11.57;75.97
56600;BME280;51832;48.152;11.530;2023-02-19T03:13:10;95773.56;;;11.22;77.65
56600;BME280;51832;48.152;11.530;2023-02-19T03:18:32;95809.63;;;11.03;78.10
56600;BME280;51832;48.152;11.530;2023-02-19T03:23:52;95779.13;;;11.14;77.42
56600;BME280;51832;48.152;11.530;2023-02-19T03:29:13;95785.72;;;11.23;76.92
56600;BME280;51832;48.152;11.530;2023-02-19T03:34:27;95781.63;;;11.27;76.73
56600;BME280;51832;48.152;11.530;2023-02-19T03:39:29;95790.28;;;11.52;76.04
56600;BME280;51832;48.152;11.530;2023-02-19T03:44:46;95779.97;;;11.08;77.86
56600;BME280;51832;48.152;11.530;2023-02-19T03:49:53;95777.88;;;10.66;79.40
56600;BME280;51832;48.152;11.530;2023-02-19T04:00:09;95797.78;;;10.62;79.44
56600;BME280;51832;48.152;11.530;2023-02-19T04:05:20;95799.59;;;10.62;79.16
56600;BME280;51832;48.152;11.530;2023-02-19T04:10:22;95778.16;;;10.83;78.84
56600;BME280;51832;48.152;11.530;2023-02-19T04:15:27;95756.66;;;11.11;78.21
56600;BME280;51832;48.152;11.530;2023-02-19T04:20:32;95754.66;;;10.63;79.07
56600;BME280;51832;48.152;11.530;2023-02-19T04:25:34;95774.59;;;10.46;80.27
56600;BME280;51832;48.152;11.530;2023-02-19T04:30:37;95764.63;;;10.80;78.55
56600;BME280;51832;48.152;11.530;2023-02-19T04:35:37;95769.81;;;10.37;79.48
56600;BME280;51832;48.152;11.530;2023-02-19T04:40:38;95813.75;;;10.29;79.52
56600;BME280;51832;48.152;11.530;2023-02-19T04:45:38;95778.38;;;10.57;79.04
56600;BME280;51832;48.152;11.530;2023-02-19T04:50:39;95777.50;;;10.38;79.47
56600;BME280;51832;48.152;11.530;2023-02-19T04:55:40;95798.38;;;10.64;77.69
56600;BME280;51832;48.152;11.530;2023-02-19T05:00:40;95806.03;;;10.35;78.96
56600;BME280;51832;48.152;11.530;2023-02-19T05:05:40;95780.88;;;10.77;77.62
56600;BME280;51832;48.152;11.530;2023-02-19T05:10:41;95784.81;;;10.61;78.00
56600;BME280;51832;48.152;11.530;2023-02-19T05:15:42;95816.44;;;10.86;77.38
56600;BME280;51832;48.152;11.530;2023-02-19T05:20:42;95797.50;;;10.39;77.93
56600;BME280;51832;48.152;11.530;2023-02-19T05:25:43;95794.44;;;10.74;77.36
56600;BME280;51832;48.152;11.530;2023-02-19T05:30:49;95806.47;;;10.63;76.93
56600;BME280;51832;48.152;11.530;2023-02-19T05:35:52;95796.56;;;10.65;77.80
56600;BME280;51832;48.152;11.530;2023-02-19T05:40:53;95818.25;;;10.85;76.18
56600;BME280;51832;48.152;11.530;2023-02-19T05:45:57;95824.22;;;10.99;75.10
56600;BME280;51832;48.152;11.530;2023-02-19T05:51:06;95813.38;;;11.14;75.06
56600;BME280;51832;48.152;11.530;2023-02-19T05:56:26;95815.31;;;11.00;75.13
56600;BME280;51832;48.152;11.530;2023-02-19T06:01:29;95827.97;;;11.10;74.85
56600;BME280;51832;48.152;11.530;2023-02-19T06:06:30;95828.69;;;10.98;74.34
56600;BME280;51832;48.152;11.530;2023-02-19T06:11:31;95834.09;;;10.79;75.07
56600;BME280;51832;48.152;11.530;2023-02-19T06:16:31;95818.63;;;10.89;74.79
56600;BME280;51832;48.152;11.530;2023-02-19T06:21:33;95823.63;;;11.22;73.84
56600;BME280;51832;48.152;11.530;2023-02-19T06:26:34;95872.53;;;10.80;74.12
56600;BME280;51832;48.152;11.530;2023-02-19T06:31:34;95852.28;;;10.80;74.67
56600;BME280;51832;48.152;11.530;2023-02-19T06:36:35;95864.91;;;11.03;73.95
56600;BME280;51832;48.152;11.530;2023-02-19T06:41:35;95846.59;;;11.15;73.75
56600;BME280;51832;48.152;11.530;2023-02-19T06:46:36;95871.16;;;11.33;73.01
56600;BME280;51832;48.152;11.530;2023-02-19T06:51:36;95876.78;;;11.12;74.26
56600;BME280;51832;48.152;11.530;2023-02-19T06:56:38;95873.06;;;10.95;74.33
56600;BME280;51832;48.152;11.530;2023-02-19T07:01:39;95864.84;;;11.34;73.41
56600;BME280;51832;48.152;11.530;2023-02-19T07:06:39;95894.72;;;11.22;73.77
56600;BME280;51832;48.152;11.530;2023-02-19T07:11:40;95899.84;;;11.17;73.58
56600;BME280;51832;48.152;11.530;2023-02-19T07:16:41;95917.09;;;11.13;73.92
56600;BME280;51832;48.152;11.530;2023-02-19T07:21:41;95921.72;;;11.17;74.09
56600;BME280;51832;48.152;11.530;2023-02-19T07:26:42;95920.59;;;11.07;74.29
56600;BME280;51832;48.152;11.530;2023-02-19T07:31:42;95916.72;;;11.09;75.17
56600;BME280;51832;48.152;11.530;2023-02-19T07:36:43;95925.31;;;11.23;74.61
56600;BME280;51832;48.152;11.530;2023-02-19T07:41:43;95936.16;;;11.39;74.95
56600;BME280;51832;48.152;11.530;2023-02-19T07:46:44;95965.69;;;11.17;75.13
56600;BME280;51832;48.152;11.530;2023-02-19T07:51:44;95962.94;;;11.05;75.65
56600;BME280;51832;48.152;11.530;2023-02-19T07:56:45;95950.34;;;11.38;74.88
56600;BME280;51832;48.152;11.530;2023-02-19T08:01:45;95954.88;;;11.56;74.25
56600;BME280;51832;48.152;11.530;2023-02-19T08:07:04;95988.81;;;11.46;74.69
56600;BME280;51832;48.152;11.530;2023-02-19T08:12:05;95967.34;;;11.92;72.92
56600;BME280;51832;48.152;11.530;2023-02-19T08:17:24;95973.66;;;11.35;74.58
56600;BME280;51832;48.152;11.530;2023-02-19T08:22:24;95988.38;;;11.49;73.98
56600;BME280;51832;48.152;11.530;2023-02-19T08:27:24;95989.75;;;11.27;74.58
56600;BME280;51832;48.152;11.530;2023-02-19T08:32:25;95995.50;;;11.73;72.70
56600;BME280;51832;48.152;11.530;2023-02-19T08:37:26;96010.81;;;11.27;74.01
56600;BME280;51832;48.152;11.530;2023-02-19T08:42:29;96011.41;;;11.60;72.36
56600;BME280;51832;48.152;11.530;2023-02-19T08:47:30;96002.66;;;11.91;70.82
56600;BME280;51832;48.152;11.530;2023-02-19T08:52:30;96011.03;;;11.57;72.72
56600;BME280;51832;48.152;11.530;2023-02-19T08:57:31;96021.66;;;12.00;71.51
56600;BME280;51832;48.152;11.530;2023-02-19T09:02:31;96043.13;;;11.47;73.02
56600;BME280;51832;48.152;11.530;2023-02-19T09:07:32;96035.66;;;11.37;71.70
56600;BME280;51832;48.152;11.530;2023-02-19T09:12:33;96050.31;;;11.27;70.81
56600;BME280;51832;48.152;11.530;2023-02-19T09:17:33;96042.56;;;11.00;69.67
56600;BME280;51832;48.152;11.530;2023-02-19T09:22:34;96080.69;;;10.91;69.82
56600;BME280;51832;48.152;11.530;2023-02-19T09:27:34;96077.84;;;10.86;69.92
56600;BME280;51832;48.152;11.530;2023-02-19T09:32:35;96105.72;;;11.14;67.59
56600;BME280;51832;48.152;11.530;2023-02-19T09:37:35;96061.22;;;11.37;65.69
56600;BME280;51832;48.152;11.530;2023-02-19T09:42:39;96059.44;;;10.80;65.87
56600;BME280;51832;48.152;11.530;2023-02-19T09:47:40;96068.50;;;10.97;65.46
56600;BME280;51832;48.152;11.530;2023-02-19T09:52:48;96084.25;;;10.46;67.06
56600;BME280;51832;48.152;11.530;2023-02-19T09:57:51;96104.63;;;10.70;64.85
56600;BME280;51832;48.152;11.530;2023-02-19T10:02:54;96117.19;;;10.55;64.67
56600;BME280;51832;48.152;11.530;2023-02-19T10:07:58;96065.94;;;10.77;63.83
56600;BME280;51832;48.152;11.530;2023-02-19T10:13:23;96056.00;;;11.30;63.62
56600;BME280;51832;48.152;11.530;2023-02-19T10:18:27;96055.22;;;11.61;61.96
56600;BME280;51832;48.152;11.530;2023-02-19T10:23:29;96074.34;;;11.82;59.05
56600;BME280;51832;48.152;11.530;2023-02-19T10:28:32;96095.94;;;12.22;57.08
56600;BME280;51832;48.152;11.530;2023-02-19T10:33:50;96094.00;;;12.35;56.28
56600;BME280;51832;48.152;11.530;2023-02-19T10:38:51;96080.81;;;12.10;57.11
56600;BME280;51832;48.152;11.530;2023-02-19T10:48:57;96097.66;;;12.34;55.82
56600;BME280;51832;48.152;11.530;2023-02-19T10:54:19;96105.25;;;12.24;54.93
56600;BME280;51832;48.152;11.530;2023-02-19T10:59:26;96050.13;;;12.41;54.78
56600;BME280;51832;48.152;11.530;2023-02-19T11:04:32;96059.28;;;12.75;54.39
56600;BME280;51832;48.152;11.530;2023-02-19T11:09:39;96038.47;;;12.67;54.51
56600;BME280;51832;48.152;11.530;2023-02-19T11:14:43;96044.25;;;12.94;53.32
56600;BME280;51832;48.152;11.530;2023-02-19T11:19:44;96040.97;;;12.80;53.93
56600;BME280;51832;48.152;11.530;2023-02-19T11:24:49;96058.91;;;12.90;53.30
56600;BME280;51832;48.152;11.530;2023-02-19T11:29:51;96038.94;;;13.30;52.32
56600;BME280;51832;48.152;11.530;2023-02-19T11:35:20;96076.84;;;13.24;53.07
56600;BME280;51832;48.152;11.530;2023-02-19T11:45:52;96088.66;;;13.22;55.95
56600;BME280;51832;48.152;11.530;2023-02-19T12:01:34;96077.22;;;12.30;57.59
56600;BME280;51832;48.152;11.530;2023-02-19T12:07:23;96073.19;;;12.27;55.69
56600;BME280;51832;48.152;11.530;2023-02-19T12:18:08;96070.78;;;12.62;53.53
56600;BME280;51832;48.152;11.530;2023-02-19T12:23:43;96094.06;;;12.90;52.02
56600;BME280;51832;48.152;11.530;2023-02-19T12:29:04;96068.41;;;13.45;50.66
56600;BME280;51832;48.152;11.530;2023-02-19T12:44:56;96136.00;;;12.37;55.73
56600;BME280;51832;48.152;11.530;2023-02-19T12:55:26;96154.66;;;11.86;56.50
56600;BME280;51832;48.152;11.530;2023-02-19T13:00:41;96140.38;;;11.55;55.56
56600;BME280;51832;48.152;11.530;2023-02-19T13:05:49;96107.19;;;11.86;53.81
56600;BME280;51832;48.152;11.530;2023-02-19T13:11:09;96159.13;;;11.79;53.05
56600;BME280;51832;48.152;11.530;2023-02-19T13:16:16;96115.91;;;12.61;52.00
56600;BME280;51832;48.152;11.530;2023-02-19T13:21:19;96113.78;;;12.26;53.61
56600;BME280;51832;48.152;11.530;2023-02-19T13:27:12;96149.31;;;12.24;54.51
56600;BME280;51832;48.152;11.530;2023-02-19T13:32:35;96121.31;;;11.91;55.05
56600;BME280;51832;48.152;11.530;2023-02-19T13:37:38;96112.78;;;12.45;54.43
56600;BME280;51832;48.152;11.530;2023-02-19T13:42:39;96124.78;;;11.92;55.36
56600;BME280;51832;48.152;11.530;2023-02-19T13:53:01;96112.91;;;11.76;56.50
56600;BME280;51832;48.152;11.530;2023-02-19T13:58:56;96110.91;;;11.65;57.69
56600;BME280;51832;48.152;11.530;2023-02-19T14:04:17;96110.56;;;11.93;57.29
56600;BME280;51832;48.152;11.530;2023-02-19T14:19:47;96129.34;;;11.33;58.23
56600;BME280;51832;48.152;11.530;2023-02-19T14:24:48;96147.25;;;11.18;58.77
56600;BME280;51832;48.152;11.530;2023-02-19T14:29:52;96098.22;;;11.49;58.25
56600;BME280;51832;48.152;11.530;2023-02-19T14:34:52;96121.31;;;11.09;59.38
56600;BME280;51832;48.152;11.530;2023-02-19T14:39:53;96123.97;;;11.53;57.84
56600;BME280;51832;48.152;11.530;2023-02-19T14:44:58;96118.50;;;11.48;58.62
56600;BME280;51832;48.152;11.530;2023-02-19T14:50:06;96115.53;;;11.76;57.85
56600;BME280;51832;48.152;11.530;2023-02-19T14:55:22;96128.84;;;11.50;58.40
56600;BME280;51832;48.152;11.530;2023-02-19T15:00:29;96141.22;;;11.49;58.08
56600;BME280;51832;48.152;11.530;2023-02-19T15:05:34;96150.38;;;11.40;58.17
56600;BME280;51832;48.152;11.530;2023-02-19T15:10:40;96136.44;;;12.09;56.42
56600;BME280;51832;48.152;11.530;2023-02-19T15:15:42;96157.34;;;11.66;57.88
56600;BME280;51832;48.152;11.530;2023-02-19T15:20:44;96163.81;;;11.70;57.75
56600;BME280;51832;48.152;11.530;2023-02-19T15:25:44;96165.91;;;11.61;58.96
56600;BME280;51832;48.152;11.530;2023-02-19T15:30:45;96172.53;;;12.15;57.12
56600;BME280;51832;48.152;11.530;2023-02-19T15:35:51;96179.56;;;12.21;57.10
56600;BME280;51832;48.152;11.530;2023-02-19T15:40:52;96186.84;;;11.94;57.02
56600;BME280;51832;48.152;11.530;2023-02-19T15:45:59;96176.41;;;11.68;57.74
56600;BME280;51832;48.152;11.530;2023-02-19T15:51:05;96173.25;;;11.91;56.47
56600;BME280;51832;48.152;11.530;2023-02-19T15:56:13;96185.09;;;11.75;56.40
56600;BME280;51832;48.152;11.530;2023-02-19T16:01:26;96179.66;;;12.39;54.29
56600;BME280;51832;48.152;11.530;2023-02-19T16:06:27;96180.13;;;12.30;54.90
56600;BME280;51832;48.152;11.530;2023-02-19T16:11:36;96165.34;;;11.91;55.37
56600;BME280;51832;48.152;11.530;2023-02-19T16:16:38;96179.06;;;12.06;55.31
56600;BME280;51832;48.152;11.530;2023-02-19T16:21:42;96185.63;;;11.90;55.30
56600;BME280;51832;48.152;11.530;2023-02-19T16:26:44;96188.06;;;11.47;56.60
56600;BME280;51832;48.152;11.530;2023-02-19T16:31:54;96198.28;;;11.75;56.14
56600;BME280;51832;48.152;11.530;2023-02-19T16:36:55;96204.22;;;12.08;54.79
56600;BME280;51832;48.152;11.530;2023-02-19T16:47:01;96209.81;;;11.87;56.05
56600;BME280;51832;48.152;11.530;2023-02-19T16:52:02;96228.94;;;11.63;56.64
56600;BME280;51832;48.152;11.530;2023-02-19T16:57:03;96231.94;;;11.80;56.33
56600;BME280;51832;48.152;11.530;2023-02-19T17:02:05;96251.88;;;11.56;56.56
56600;BME280;51832;48.152;11.530;2023-02-19T17:07:12;96261.63;;;11.49;57.43
56600;BME280;51832;48.152;11.530;2023-02-19T17:12:15;96272.81;;;11.44;57.34
56600;BME280;51832;48.152;11.530;2023-02-19T17:17:15;96258.41;;;11.40;57.97
56600;BME280;51832;48.152;11.530;2023-02-19T17:22:16;96263.38;;;11.74;56.52
56600;BME280;51832;48.152;11.530;2023-02-19T17:27:16;96279.50;;;11.40;57.30
56600;BME280;51832;48.152;11.530;2023-02-19T17:32:17;96274.97;;;11.67;56.54
56600;BME280;51832;48.152;11.530;2023-02-19T17:37:17;96294.50;;;11.39;57.08
56600;BME280;51832;48.152;11.530;2023-02-19T17:42:18;96307.47;;;11.48;57.24
56600;BME280;51832;48.152;11.530;2023-02-19T17:47:19;96292.88;;;11.45;57.11
56600;BME280;51832;48.152;11.530;2023-02-19T17:52:20;96302.84;;;11.17;57.99
56600;BME280;51832;48.152;11.530;2023-02-19T17:57:20;96317.44;;;11.06;58.82
56600;BME280;51832;48.152;11.530;2023-02-19T18:02:21;96325.88;;;11.61;57.65
56600;BME280;51832;48.152;11.530;2023-02-19T18:07:21;96332.41;;;11.25;58.56
56600;BME280;51832;48.152;11.530;2023-02-19T18:12:22;96344.09;;;11.69;57.88
56600;BME280;51832;48.152;11.530;2023-02-19T18:17:25;96356.09;;;11.52;57.81
56600;BME280;51832;48.152;11.530;2023-02-19T18:22:25;96355.84;;;11.93;57.26
56600;BME280;51832;48.152;11.530;2023-02-19T18:27:26;96371.91;;;11.85;57.19
56600;BME280;51832;48.152;11.530;2023-02-19T18:32:26;96384.91;;;11.27;59.90
56600;BME280;51832;48.152;11.530;2023-02-19T18:37:27;96385.50;;;11.35;59.67
56600;BME280;51832;48.152;11.530;2023-02-19T18:42:30;96393.19;;;11.63;59.06
56600;BME280;51832;48.152;11.530;2023-02-19T18:47:30;96399.91;;;11.33;59.67
56600;BME280;51832;48.152;11.530;2023-02-19T18:52:31;96408.19;;;11.83;58.25
56600;BME280;51832;48.152;11.530;2023-02-19T18:57:31;96409.81;;;11.11;59.69
56600;BME280;51832;48.152;11.530;2023-02-19T19:02:32;96405.13;;;10.93;60.20
56600;BME280;51832;48.152;11.530;2023-02-19T19:07:32;96415.28;;;11.75;57.77
56600;BME280;51832;48.152;11.530;2023-02-19T19:12:33;96423.34;;;10.75;60.21
56600;BME280;51832;48.152;11.530;2023-02-19T19:17:33;96423.41;;;11.28;59.56
56600;BME280;51832;48.152;11.530;2023-02-19T19:22:34;96408.19;;;11.10;59.73
56600;BME280;51832;48.152;11.530;2023-02-19T19:27:34;96400.66;;;10.94;60.51
56600;BME280;51832;48.152;11.530;2023-02-19T19:32:36;96408.22;;;11.17;60.46
56600;BME280;51832;48.152;11.530;2023-02-19T19:37:36;96397.06;;;11.01;60.28
56600;BME280;51832;48.152;11.530;2023-02-19T19:42:37;96400.31;;;11.03;60.50
56600;BME280;51832;48.152;11.530;2023-02-19T19:47:37;96395.03;;;10.90;60.33
56600;BME280;51832;48.152;11.530;2023-02-19T19:52:38;96390.16;;;11.07;60.41
56600;BME280;51832;48.152;11.530;2023-02-19T19:57:38;96404.88;;;10.68;60.78
56600;BME280;51832;48.152;11.530;2023-02-19T20:02:38;96408.41;;;11.02;59.90
56600;BME280;51832;48.152;11.530;2023-02-19T20:07:39;96406.09;;;10.66;61.11
56600;BME280;51832;48.152;11.530;2023-02-19T20:12:39;96409.22;;;11.16;59.71
56600;BME280;51832;48.152;11.530;2023-02-19T20:17:40;96412.25;;;10.99;59.84
56600;BME280;51832;48.152;11.530;2023-02-19T20:22:40;96415.28;;;11.03;59.59
56600;BME280;51832;48.152;11.530;2023-02-19T20:27:41;96426.00;;;10.95;60.13
56600;BME280;51832;48.152;11.530;2023-02-19T20:32:42;96414.91;;;11.26;59.61
56600;BME280;51832;48.152;11.530;2023-02-19T20:37:43;96416.50;;;11.14;59.45
56600;BME280;51832;48.152;11.530;2023-02-19T20:42:43;96422.56;;;11.08;60.09
56600;BME280;51832;48.152;11.530;2023-02-19T20:47:44;96412.25;;;10.99;59.99
56600;BME280;51832;48.152;11.530;2023-02-19T20:52:45;96414.91;;;11.06;60.12
56600;BME280;51832;48.152;11.530;2023-02-19T20:57:45;96423.00;;;11.18;59.63
56600;BME280;51832;48.152;11.530;2023-02-19T21:02:46;96428.09;;;10.45;61.90
56600;BME280;51832;48.152;11.530;2023-02-19T21:07:46;96444.00;;;10.78;60.87
56600;BME280;51832;48.152;11.530;2023-02-19T21:12:46;96423.13;;;10.77;60.88
56600;BME280;51832;48.152;11.530;2023-02-19T21:17:49;96439.25;;;10.54;61.47
56600;BME280;51832;48.152;11.530;2023-02-19T21:22:49;96442.94;;;10.66;61.58
56600;BME280;51832;48.152;11.530;2023-02-19T21:27:50;96445.16;;;10.69;61.22
56600;BME280;51832;48.152;11.530;2023-02-19T21:32:50;96429.91;;;10.38;62.12
56600;BME280;51832;48.152;11.530;2023-02-19T21:37:50;96445.03;;;10.90;60.47
56600;BME280;51832;48.152;11.530;2023-02-19T21:42:51;96430.09;;;11.30;59.39
56600;BME280;51832;48.152;11.530;2023-02-19T21:47:51;96428.38;;;10.63;61.35
56600;BME280;51832;48.152;11.530;2023-02-19T21:52:53;96427.22;;;10.25;62.57
56600;BME280;51832;48.152;11.530;2023-02-19T21:57:54;96426.81;;;10.28;62.53
56600;BME280;51832;48.152;11.530;2023-02-19T22:02:54;96424.75;;;10.78;61.21
56600;BME280;51832;48.152;11.530;2023-02-19T22:07:55;96426.97;;;10.74;61.26
56600;BME280;51832;48.152;11.530;2023-02-19T22:12:57;96436.22;;;10.57;61.91
56600;BME280;51832;48.152;11.530;2023-02-19T22:17:58;96432.16;;;10.54;62.04
56600;BME280;51832;48.152;11.530;2023-02-19T22:22:58;96447.75;;;10.56;61.66
56600;BME280;51832;48.152;11.530;2023-02-19T22:27:58;96443.09;;;10.51;62.13
56600;BME280;51832;48.152;11.530;2023-02-19T22:32:59;96447.91;;;10.41;62.16
56600;BME280;51832;48.152;11.530;2023-02-19T22:37:59;96436.69;;;10.74;61.02
56600;BME280;51832;48.152;11.530;2023-02-19T22:43:00;96441.28;;;10.11;62.81
56600;BME280;51832;48.152;11.530;2023-02-19T22:48:00;96448.38;;;10.51;61.86
56600;BME280;51832;48.152;11.530;2023-02-19T22:53:00;96451.38;;;10.48;62.17
56600;BME280;51832;48.152;11.530;2023-02-19T22:58:01;96440.72;;;10.69;62.01
56600;BME280;51832;48.152;11.530;2023-02-19T23:03:01;96452.59;;;10.52;61.54
56600;BME280;51832;48.152;11.530;2023-02-19T23:08:02;96455.09;;;10.67;60.95
56600;BME280;51832;48.152;11.530;2023-02-19T23:13:03;96465.22;;;10.70;61.00
56600;BME280;51832;48.152;11.530;2023-02-19T23:18:03;96466.38;;;11.15;59.74
56600;BME280;51832;48.152;11.530;2023-02-19T23:23:05;96475.66;;;11.11;59.66
56600;BME280;51832;48.152;11.530;2023-02-19T23:28:05;96477.19;;;10.73;60.78
56600;BME280;51832;48.152;11.530;2023-02-19T23:33:06;96473.13;;;10.63;61.29
56600;BME280;51832;48.152;11.530;2023-02-19T23:38:06;96465.06;;;10.78;60.65
56600;BME280;51832;48.152;11.530;2023-02-19T23:43:07;96468.31;;;10.87;60.81
56600;BME280;51832;48.152;11.530;2023-02-19T23:48:07;96474.41;;;10.87;60.96
56600;BME280;51832;48.152;11.530;2023-02-19T23:53:08;96479.13;;;11.25;59.62
56600;BME280;51832;48.152;11.530;2023-02-19T23:58:09;96473.25;;;11.16;60.15
